createdAt,value
2019-02-19T00:01:00.275Z,4.30
2019-02-19T00:03:28.755Z,4.40
2019-02-19T00:05:57.233Z,4.30
2019-02-19T00:08:27.422Z,4.30
2019-02-19T00:10:55.864Z,4.20
2019-02-19T00:13:24.387Z,4.10
2019-02-19T00:15:55.487Z,4.30
2019-02-19T00:18:23.978Z,4.30
2019-02-19T00:20:52.434Z,4.20
2019-02-19T00:23:20.858Z,4.10
2019-02-19T00:25:49.360Z,4.20
2019-02-19T00:28:17.732Z,4.20
2019-02-19T00:30:46.178Z,4.20
2019-02-19T00:33:14.587Z,4.10
2019-02-19T00:35:44.370Z,4.00
2019-02-19T00:38:12.780Z,4.00
2019-02-19T00:40:41.223Z,4.00
2019-02-19T00:43:09.723Z,4.00
2019-02-19T00:45:38.199Z,4.10
2019-02-19T00:48:06.575Z,4.10
2019-02-19T00:50:36.804Z,4.00
2019-02-19T00:53:05.192Z,4.00
2019-02-19T00:55:33.892Z,4.00
2019-02-19T00:58:02.267Z,4.00
2019-02-19T01:00:38.396Z,4.00
2019-02-19T01:03:06.982Z,3.90
2019-02-19T01:05:35.519Z,3.90
2019-02-19T01:08:04.178Z,3.80
2019-02-19T01:10:34.030Z,3.80
2019-02-19T01:13:02.426Z,3.80
2019-02-19T01:15:31.221Z,3.90
2019-02-19T01:17:59.622Z,3.80
2019-02-19T01:20:28.067Z,3.80
2019-02-19T01:22:56.542Z,3.70
2019-02-19T01:25:25.743Z,3.70
2019-02-19T01:27:54.824Z,3.70
2019-02-19T01:30:23.351Z,3.70
2019-02-19T01:32:51.736Z,3.70
2019-02-19T01:35:20.228Z,3.70
2019-02-19T01:37:48.614Z,3.70
2019-02-19T01:40:17.009Z,3.60
2019-02-19T01:42:45.513Z,3.60
2019-02-19T01:45:13.900Z,3.80
2019-02-19T01:47:42.684Z,3.80
2019-02-19T01:50:11.280Z,3.80
2019-02-19T01:52:39.774Z,3.80
2019-02-19T01:55:08.289Z,3.80
2019-02-19T01:57:36.664Z,3.70
2019-02-19T02:00:08.149Z,3.70
2019-02-19T02:02:37.583Z,3.70
2019-02-19T02:05:06.059Z,3.70
2019-02-19T02:07:34.575Z,3.60
2019-02-19T02:10:03.857Z,3.70
2019-02-19T02:12:34.162Z,3.70
2019-02-19T02:15:02.670Z,3.80
2019-02-19T02:17:32.259Z,3.80
2019-02-19T02:20:00.681Z,3.80
2019-02-19T02:22:29.097Z,3.70
2019-02-19T02:24:57.471Z,3.60
2019-02-19T02:27:25.878Z,3.50
2019-02-19T02:29:54.365Z,3.50
2019-02-19T02:32:23.261Z,3.60
2019-02-19T02:34:51.792Z,3.50
2019-02-19T02:37:20.268Z,3.50
2019-02-19T02:39:48.767Z,3.50
2019-02-19T02:42:17.271Z,3.50
2019-02-19T02:44:46.886Z,3.50
2019-02-19T02:47:15.375Z,3.50
2019-02-19T02:49:43.744Z,3.40
2019-02-19T02:52:13.842Z,3.40
2019-02-19T02:54:44.020Z,3.30
2019-02-19T02:57:14.224Z,3.30
2019-02-19T02:59:44.433Z,3.10
2019-02-19T03:02:14.614Z,3.20
2019-02-19T03:04:44.817Z,3.40
2019-02-19T03:07:20.766Z,3.40
2019-02-19T03:09:49.177Z,3.30
2019-02-19T03:12:17.653Z,3.20
2019-02-19T03:14:46.028Z,3.20
2019-02-19T03:17:14.430Z,3.30
2019-02-19T03:19:43.035Z,3.20
2019-02-19T03:22:11.539Z,3.20
2019-02-19T03:24:40.012Z,3.20
2019-02-19T03:27:08.503Z,3.20
2019-02-19T03:29:37.009Z,3.20
2019-02-19T03:32:05.540Z,3.20
2019-02-19T03:34:34.044Z,3.30
2019-02-19T03:37:02.522Z,3.40
2019-02-19T03:39:31.023Z,3.20
2019-02-19T03:41:59.800Z,3.10
2019-02-19T03:44:29.478Z,3.10
2019-02-19T03:46:57.987Z,3.10
2019-02-19T03:49:26.362Z,3.10
2019-02-19T03:51:54.880Z,3.00
2019-02-19T03:54:23.895Z,3.10
2019-02-19T03:56:53.376Z,3.00
2019-02-19T03:59:29.032Z,2.90
2019-02-19T04:01:57.601Z,2.90
2019-02-19T04:04:26.015Z,2.90
2019-02-19T04:06:54.405Z,3.00
2019-02-19T04:09:22.817Z,3.00
2019-02-19T04:11:51.312Z,3.00
2019-02-19T04:14:21.505Z,3.00
2019-02-19T04:16:49.880Z,3.00
2019-02-19T04:19:18.281Z,3.10
2019-02-19T04:21:46.736Z,3.00
2019-02-19T04:24:15.121Z,3.00
2019-02-19T04:26:43.806Z,3.00
2019-02-19T04:29:12.231Z,3.00
2019-02-19T04:31:40.939Z,3.00
2019-02-19T04:34:09.328Z,3.00
2019-02-19T04:36:37.826Z,3.00
2019-02-19T04:39:06.506Z,3.10
2019-02-19T04:41:35.230Z,2.90
2019-02-19T04:44:03.707Z,2.90
2019-02-19T04:46:32.101Z,3.00
2019-02-19T04:49:00.484Z,2.90
2019-02-19T04:51:29.039Z,2.80
2019-02-19T04:53:57.457Z,2.90
2019-02-19T04:56:25.926Z,2.90
2019-02-19T04:58:54.309Z,2.80
2019-02-19T05:01:22.905Z,2.80
2019-02-19T05:03:51.587Z,2.80
2019-02-19T05:06:20.116Z,2.90
2019-02-19T05:08:48.595Z,3.00
2019-02-19T05:11:17.144Z,2.90
2019-02-19T05:13:45.653Z,2.90
2019-02-19T05:16:14.023Z,3.00
2019-02-19T05:18:42.418Z,2.90
2019-02-19T05:21:10.970Z,2.90
2019-02-19T05:23:39.480Z,2.90
2019-02-19T05:26:07.990Z,2.90
2019-02-19T05:28:36.559Z,2.90
2019-02-19T05:31:06.812Z,2.80
2019-02-19T05:33:35.193Z,2.70
2019-02-19T05:36:03.833Z,2.70
2019-02-19T05:38:32.518Z,2.80
2019-02-19T05:41:02.546Z,2.70
2019-02-19T05:43:31.455Z,2.70
2019-02-19T05:45:59.953Z,2.70
2019-02-19T05:48:28.393Z,2.60
2019-02-19T05:50:58.066Z,2.60
2019-02-19T05:53:26.486Z,2.50
2019-02-19T05:55:54.968Z,2.50
2019-02-19T05:58:23.374Z,2.60
2019-02-19T06:00:51.998Z,2.80
2019-02-19T06:03:20.383Z,2.70
2019-02-19T06:05:48.882Z,2.70
2019-02-19T06:08:17.359Z,2.70
2019-02-19T06:10:46.463Z,2.70
2019-02-19T06:13:16.467Z,2.80
2019-02-19T06:15:44.963Z,2.80
2019-02-19T06:18:14.877Z,2.70
2019-02-19T06:20:43.625Z,2.70
2019-02-19T06:23:12.165Z,2.80
2019-02-19T06:25:40.950Z,2.70
2019-02-19T06:28:11.136Z,2.80
2019-02-19T06:30:39.656Z,2.70
2019-02-19T06:33:08.150Z,2.60
2019-02-19T06:35:36.732Z,2.70
2019-02-19T06:38:06.135Z,2.70
2019-02-19T06:40:35.196Z,2.80
2019-02-19T06:43:03.601Z,2.90
2019-02-19T06:45:31.988Z,2.90
2019-02-19T06:48:00.395Z,3.00
2019-02-19T06:50:28.986Z,3.00
2019-02-19T06:52:57.368Z,3.00
2019-02-19T06:55:25.749Z,3.00
2019-02-19T06:57:54.137Z,3.10
2019-02-19T07:00:29.803Z,3.20
2019-02-19T07:03:03.439Z,3.20
2019-02-19T07:05:31.863Z,3.20
2019-02-19T07:08:02.101Z,3.20
2019-02-19T07:10:30.703Z,3.20
2019-02-19T07:13:00.923Z,3.20
2019-02-19T07:15:30.901Z,3.30
2019-02-19T07:17:59.309Z,3.30
2019-02-19T07:20:27.767Z,3.30
2019-02-19T07:22:56.281Z,3.20
2019-02-19T07:25:24.913Z,3.10
2019-02-19T07:27:53.294Z,2.70
2019-02-19T07:30:21.688Z,2.90
2019-02-19T07:32:50.184Z,3.20
2019-02-19T07:35:18.651Z,3.10
2019-02-19T07:37:47.015Z,2.90
2019-02-19T07:40:17.356Z,3.00
2019-02-19T07:42:45.874Z,3.10
2019-02-19T07:45:15.650Z,3.50
2019-02-19T07:47:44.558Z,3.60
2019-02-19T07:50:14.748Z,3.80
2019-02-19T07:52:43.455Z,4.00
2019-02-19T07:55:13.651Z,4.10
2019-02-19T07:57:43.894Z,4.10
2019-02-19T08:00:13.854Z,4.10
2019-02-19T08:02:42.475Z,4.20
2019-02-19T08:05:11.009Z,4.20
2019-02-19T08:07:39.423Z,4.40
2019-02-19T08:10:09.561Z,4.50
2019-02-19T08:12:38.280Z,4.50
2019-02-19T08:15:07.167Z,4.60
2019-02-19T08:17:35.673Z,4.60
2019-02-19T08:20:13.456Z,4.60
2019-02-19T08:22:36.432Z,4.70
2019-02-19T08:25:06.966Z,4.80
2019-02-19T08:27:35.450Z,4.70
2019-02-19T08:30:04.188Z,4.70
2019-02-19T08:32:34.395Z,4.90
2019-02-19T08:35:02.881Z,4.90
2019-02-19T08:37:31.472Z,5.00
2019-02-19T08:39:59.954Z,5.00
2019-02-19T08:42:30.235Z,4.90
2019-02-19T08:44:58.797Z,5.00
2019-02-19T08:47:27.275Z,5.20
2019-02-19T08:49:55.771Z,5.20
2019-02-19T08:52:24.413Z,5.30
2019-02-19T08:54:53.027Z,5.40
2019-02-19T08:57:21.511Z,5.40
2019-02-19T08:59:51.705Z,5.50
2019-02-19T09:02:20.178Z,5.60
2019-02-19T09:04:48.658Z,5.70
2019-02-19T09:07:18.064Z,5.70
2019-02-19T09:09:46.864Z,5.80
2019-02-19T09:12:15.479Z,5.90
2019-02-19T09:14:45.667Z,6.00
2019-02-19T09:17:14.152Z,6.20
2019-02-19T09:19:42.783Z,6.30
2019-02-19T09:22:13.089Z,6.30
2019-02-19T09:24:41.735Z,6.40
2019-02-19T09:27:10.254Z,6.50
2019-02-19T09:29:38.664Z,6.50
2019-02-19T09:32:07.470Z,6.50
2019-02-19T09:34:35.910Z,6.70
2019-02-19T09:37:04.709Z,6.80
2019-02-19T09:39:33.121Z,6.90
2019-02-19T09:42:04.529Z,7.10
2019-02-19T09:44:33.261Z,7.10
2019-02-19T09:47:03.742Z,7.30
2019-02-19T09:49:32.266Z,7.30
2019-02-19T09:52:02.461Z,7.50
2019-02-19T09:54:31.333Z,7.60
2019-02-19T09:56:59.903Z,7.70
2019-02-19T09:59:30.181Z,7.80
2019-02-19T10:01:59.201Z,7.90
2019-02-19T10:04:27.941Z,8.00
2019-02-19T10:06:56.352Z,8.10
2019-02-19T10:09:26.558Z,8.20
2019-02-19T10:11:55.156Z,8.30
2019-02-19T10:14:25.365Z,8.50
2019-02-19T10:16:55.564Z,8.70
2019-02-19T10:19:25.999Z,8.80
2019-02-19T10:21:54.815Z,8.90
2019-02-19T10:24:23.407Z,9.10
2019-02-19T10:26:51.805Z,9.30
2019-02-19T10:29:20.409Z,9.50
2019-02-19T10:31:49.219Z,9.70
2019-02-19T10:34:17.625Z,10.10
2019-02-19T10:36:46.326Z,10.40
2019-02-19T10:39:15.039Z,10.60
2019-02-19T10:41:43.505Z,10.90
2019-02-19T10:44:11.915Z,11.20
2019-02-19T10:46:40.411Z,11.50
2019-02-19T10:49:08.912Z,11.90
2019-02-19T10:51:37.413Z,12.30
2019-02-19T10:54:06.119Z,12.50
2019-02-19T10:56:34.723Z,12.60
2019-02-19T10:59:03.206Z,12.80
2019-02-19T11:01:31.748Z,13.10
2019-02-19T11:04:00.249Z,13.70
2019-02-19T11:06:29.399Z,14.40
2019-02-19T11:08:58.090Z,14.50
2019-02-19T11:11:26.679Z,14.20
2019-02-19T11:13:56.163Z,14.20
2019-02-19T11:16:25.444Z,14.60
2019-02-19T11:18:53.821Z,15.00
2019-02-19T11:21:22.339Z,15.20
2019-02-19T11:23:52.551Z,15.20
2019-02-19T11:26:21.068Z,15.20
2019-02-19T11:28:51.244Z,15.30
2019-02-19T11:31:19.680Z,15.80
2019-02-19T11:33:48.194Z,16.20
2019-02-19T11:36:16.708Z,16.30
2019-02-19T11:38:45.097Z,16.60
2019-02-19T11:41:13.877Z,16.90
2019-02-19T11:43:42.386Z,17.00
2019-02-19T11:46:11.054Z,16.90
2019-02-19T11:48:40.007Z,17.00
2019-02-19T11:51:09.084Z,17.10
2019-02-19T11:53:37.757Z,17.10
2019-02-19T11:56:06.458Z,17.40
2019-02-19T11:58:35.310Z,17.40
2019-02-19T12:01:04.627Z,17.40
2019-02-19T12:03:33.109Z,17.60
2019-02-19T12:06:01.821Z,17.60
2019-02-19T12:08:38.670Z,17.70
2019-02-19T12:11:01.057Z,17.90
2019-02-19T12:13:29.766Z,18.10
2019-02-19T12:15:58.391Z,18.30
2019-02-19T12:18:27.793Z,18.50
2019-02-19T12:20:56.915Z,18.60
2019-02-19T12:23:25.418Z,18.70
2019-02-19T12:25:55.652Z,18.80
2019-02-19T12:28:24.063Z,18.70
2019-02-19T12:30:54.270Z,18.90
2019-02-19T12:33:22.848Z,18.80
2019-02-19T12:35:51.236Z,18.90
2019-02-19T12:38:20.004Z,19.20
2019-02-19T12:40:48.656Z,19.20
2019-02-19T12:43:17.381Z,19.40
2019-02-19T12:45:47.598Z,19.30
2019-02-19T12:48:16.715Z,19.40
2019-02-19T12:50:45.401Z,19.30
2019-02-19T12:53:14.354Z,19.30
2019-02-19T12:55:44.935Z,19.30
2019-02-19T12:58:14.193Z,19.30
2019-02-19T13:00:43.433Z,19.40
2019-02-19T13:03:12.246Z,19.50
2019-02-19T13:05:41.665Z,19.40
2019-02-19T13:08:10.656Z,19.20
2019-02-19T13:10:39.851Z,19.40
2019-02-19T13:13:10.049Z,19.70
2019-02-19T13:15:38.815Z,19.80
2019-02-19T13:18:07.761Z,19.80
2019-02-19T13:20:36.576Z,19.70
2019-02-19T13:23:05.060Z,19.80
2019-02-19T13:25:33.933Z,19.90
2019-02-19T13:28:02.676Z,19.90
2019-02-19T13:30:32.300Z,20.10
2019-02-19T13:33:01.074Z,19.90
2019-02-19T13:35:30.000Z,19.60
2019-02-19T13:37:58.781Z,19.90
2019-02-19T13:40:27.648Z,20.00
2019-02-19T13:42:56.327Z,19.90
2019-02-19T13:45:24.918Z,20.00
2019-02-19T13:47:53.783Z,19.80
2019-02-19T13:50:24.747Z,19.80
2019-02-19T13:53:22.254Z,19.60
2019-02-19T13:55:55.238Z,19.70
2019-02-19T13:58:23.703Z,19.50
2019-02-19T14:00:52.347Z,19.30
2019-02-19T14:03:21.087Z,19.00
2019-02-19T14:05:49.718Z,18.70
2019-02-19T14:08:19.906Z,18.50
2019-02-19T14:10:49.379Z,18.30
2019-02-19T14:13:18.100Z,18.20
2019-02-19T14:15:55.275Z,18.10
2019-02-19T14:18:46.534Z,17.90
2019-02-19T14:21:33.189Z,17.80
2019-02-19T14:24:25.845Z,17.70
2019-02-19T14:27:29.629Z,17.60
2019-02-19T14:30:16.576Z,17.30
2019-02-19T14:33:04.599Z,16.90
2019-02-19T14:35:51.874Z,16.80
2019-02-19T14:38:38.650Z,16.80
2019-02-19T14:41:25.783Z,16.90
2019-02-19T14:44:32.447Z,16.80
2019-02-19T14:47:35.702Z,16.70
2019-02-19T14:50:24.402Z,16.60
2019-02-19T14:53:12.679Z,16.40
2019-02-19T14:56:04.173Z,16.20
2019-02-19T14:59:12.710Z,16.30
2019-02-19T15:02:07.066Z,16.20
2019-02-19T15:05:02.737Z,16.00
2019-02-19T15:07:51.207Z,16.00
2019-02-19T15:10:54.831Z,15.90
2019-02-19T15:13:49.192Z,15.80
2019-02-19T15:16:54.111Z,15.70
2019-02-19T15:19:39.081Z,15.60
2019-02-19T15:22:38.857Z,15.50
2019-02-19T15:25:26.020Z,15.40
2019-02-19T15:28:06.379Z,15.50
2019-02-19T15:30:48.525Z,15.30
2019-02-19T15:33:54.773Z,15.20
2019-02-19T15:36:43.295Z,15.10
2019-02-19T15:39:31.772Z,15.10
2019-02-19T15:42:27.799Z,14.80
2019-02-19T15:45:14.518Z,14.80
2019-02-19T15:48:06.750Z,14.70
2019-02-19T15:51:13.169Z,14.60
2019-02-19T15:54:01.230Z,14.50
2019-02-19T15:56:49.436Z,14.40
2019-02-19T15:59:47.231Z,14.30
2019-02-19T16:02:25.854Z,14.10
2019-02-19T16:05:09.789Z,14.00
2019-02-19T16:07:46.464Z,13.70
2019-02-19T16:10:24.200Z,13.70
2019-02-19T16:13:03.888Z,13.60
2019-02-19T16:15:55.384Z,13.40
2019-02-19T16:18:46.667Z,13.30
2019-02-19T16:21:47.120Z,13.20
2019-02-19T16:24:26.609Z,13.10
2019-02-19T16:27:14.747Z,12.80
2019-02-19T16:30:03.893Z,12.60
2019-02-19T16:32:52.372Z,12.50
2019-02-19T16:35:40.761Z,12.30
2019-02-19T16:38:27.652Z,12.10
2019-02-19T16:41:12.234Z,11.90
2019-02-19T16:44:03.279Z,11.80
2019-02-19T16:46:54.973Z,11.60
2019-02-19T16:49:37.834Z,11.50
2019-02-19T16:52:22.355Z,11.30
2019-02-19T16:55:25.701Z,11.20
2019-02-19T16:58:00.770Z,11.10
2019-02-19T17:00:51.392Z,11.00
2019-02-19T17:03:38.287Z,11.00
2019-02-19T17:06:25.457Z,10.80
2019-02-19T17:09:13.751Z,10.80
2019-02-19T17:12:02.659Z,10.70
2019-02-19T17:14:42.153Z,10.60
2019-02-19T17:17:28.790Z,10.50
2019-02-19T17:20:16.394Z,10.30
2019-02-19T17:22:45.298Z,10.10
2019-02-19T17:25:37.640Z,10.00
2019-02-19T17:28:31.446Z,9.90
2019-02-19T17:31:22.143Z,10.00
2019-02-19T17:34:10.523Z,9.90
2019-02-19T17:36:48.961Z,9.60
2019-02-19T17:39:29.082Z,9.60
2019-02-19T17:42:06.913Z,9.50
2019-02-19T17:44:48.836Z,9.30
2019-02-19T17:47:36.275Z,9.20
2019-02-19T17:50:25.334Z,9.10
2019-02-19T17:53:14.879Z,9.00
2019-02-19T17:56:08.895Z,9.00
2019-02-19T17:58:57.796Z,9.00
2019-02-19T18:01:33.679Z,8.90
2019-02-19T18:04:11.072Z,8.80
2019-02-19T18:06:55.226Z,8.70
2019-02-19T18:09:33.880Z,8.60
2019-02-19T18:12:08.867Z,8.60
2019-02-19T18:14:50.638Z,8.50
2019-02-19T18:17:38.882Z,8.50
2019-02-19T18:20:07.584Z,8.50
2019-02-19T18:22:36.113Z,8.50
2019-02-19T18:25:05.152Z,8.50
2019-02-19T18:27:33.909Z,8.40
2019-02-19T18:30:04.998Z,8.30
2019-02-19T18:32:36.394Z,8.30
2019-02-19T18:35:05.391Z,8.20
2019-02-19T18:37:33.935Z,8.10
2019-02-19T18:40:02.359Z,8.10
2019-02-19T18:42:31.134Z,8.10
2019-02-19T18:44:59.600Z,8.10
2019-02-19T18:47:28.394Z,8.10
2019-02-19T18:49:57.347Z,8.10
2019-02-19T18:52:25.856Z,8.20
2019-02-19T18:54:56.045Z,8.20
2019-02-19T18:57:24.619Z,8.10
2019-02-19T18:59:53.574Z,8.10
2019-02-19T19:02:22.687Z,8.10
2019-02-19T19:04:51.413Z,8.00
2019-02-19T19:07:20.820Z,7.90
2019-02-19T19:09:50.367Z,7.90
2019-02-19T19:12:18.944Z,7.90
2019-02-19T19:14:49.279Z,7.80
2019-02-19T19:17:19.641Z,7.60
2019-02-19T19:19:48.228Z,7.50
2019-02-19T19:22:19.534Z,7.40
2019-02-19T19:24:48.341Z,7.30
2019-02-19T19:27:17.047Z,7.20
2019-02-19T19:29:45.598Z,7.20
2019-02-19T19:32:14.180Z,7.20
2019-02-19T19:34:43.121Z,7.20
2019-02-19T19:37:11.855Z,7.10
2019-02-19T19:39:40.407Z,7.10
2019-02-19T19:42:10.190Z,7.10
2019-02-19T19:44:38.579Z,7.10
2019-02-19T19:47:07.093Z,7.00
2019-02-19T19:49:35.591Z,7.00
2019-02-19T19:52:05.587Z,7.00
2019-02-19T19:54:34.499Z,7.00
2019-02-19T19:57:04.451Z,7.00
2019-02-19T19:59:37.081Z,7.00
2019-02-19T20:02:06.681Z,6.90
2019-02-19T20:04:35.536Z,6.80
2019-02-19T20:07:04.143Z,6.80
2019-02-19T20:09:33.104Z,6.80
2019-02-19T20:12:02.437Z,6.70
2019-02-19T20:14:31.424Z,6.70
2019-02-19T20:17:00.155Z,6.70
2019-02-19T20:19:29.137Z,6.70
2019-02-19T20:21:59.792Z,6.60
2019-02-19T20:24:30.409Z,6.60
2019-02-19T20:26:59.120Z,6.50
2019-02-19T20:29:27.626Z,6.40
2019-02-19T20:31:56.650Z,6.40
2019-02-19T20:34:25.874Z,6.40
2019-02-19T20:36:54.361Z,6.30
2019-02-19T20:39:23.098Z,6.30
2019-02-19T20:41:53.699Z,6.20
2019-02-19T20:44:22.414Z,6.20
2019-02-19T20:46:51.273Z,6.10
2019-02-19T20:49:19.669Z,6.10
2019-02-19T20:51:48.317Z,6.10
2019-02-19T20:54:18.838Z,6.00
2019-02-19T20:56:47.303Z,6.20
2019-02-19T20:59:16.257Z,6.10
2019-02-19T21:01:44.803Z,6.20
2019-02-19T21:04:13.475Z,6.00
2019-02-19T21:06:41.855Z,6.00
2019-02-19T21:09:10.352Z,5.80
2019-02-19T21:11:39.199Z,5.80
2019-02-19T21:14:07.713Z,5.70
2019-02-19T21:16:37.771Z,5.70
2019-02-19T21:19:06.262Z,5.80
2019-02-19T21:21:44.586Z,5.70
2019-02-19T21:24:06.606Z,5.90
2019-02-19T21:26:35.215Z,5.90
2019-02-19T21:29:03.815Z,5.90
2019-02-19T21:31:32.297Z,5.90
2019-02-19T21:34:02.488Z,5.80
2019-02-19T21:36:31.197Z,5.80
2019-02-19T21:39:00.198Z,5.70
2019-02-19T21:41:28.872Z,5.60
2019-02-19T21:43:57.274Z,5.50
2019-02-19T21:46:26.881Z,5.50
2019-02-19T21:48:55.418Z,5.60
2019-02-19T21:51:23.923Z,5.60
2019-02-19T21:53:52.463Z,5.60
2019-02-19T21:56:21.150Z,5.60
2019-02-19T21:58:49.550Z,5.50
2019-02-19T22:01:18.140Z,5.60
2019-02-19T22:03:48.377Z,5.60
2019-02-19T22:06:17.097Z,5.60
2019-02-19T22:08:45.736Z,5.60
2019-02-19T22:11:16.095Z,5.50
2019-02-19T22:13:44.508Z,5.50
2019-02-19T22:16:12.888Z,5.50
2019-02-19T22:18:42.300Z,5.50
2019-02-19T22:21:18.644Z,5.40
2019-02-19T22:23:47.162Z,5.40
2019-02-19T22:26:15.848Z,5.40
2019-02-19T22:28:44.230Z,5.40
2019-02-19T22:31:14.563Z,5.40
2019-02-19T22:33:43.057Z,5.40
2019-02-19T22:36:11.455Z,5.40
2019-02-19T22:38:39.942Z,5.30
2019-02-19T22:41:09.562Z,5.30
2019-02-19T22:43:38.071Z,5.40
2019-02-19T22:46:06.566Z,5.50
2019-02-19T22:48:35.861Z,5.40
2019-02-19T22:51:04.435Z,5.30
2019-02-19T22:53:58.380Z,5.30
2019-02-19T22:56:29.689Z,5.20
2019-02-19T22:58:58.214Z,5.10
2019-02-19T23:01:31.417Z,5.20
2019-02-19T23:04:00.879Z,5.00
2019-02-19T23:06:29.395Z,5.10
2019-02-19T23:08:57.983Z,5.00
2019-02-19T23:11:26.414Z,5.10
2019-02-19T23:13:55.017Z,5.10
2019-02-19T23:16:23.602Z,5.00
2019-02-19T23:18:52.125Z,5.00
2019-02-19T23:21:20.728Z,5.10
2019-02-19T23:23:49.219Z,5.10
2019-02-19T23:26:17.830Z,5.10
2019-02-19T23:28:46.228Z,5.00
2019-02-19T23:31:14.696Z,5.00
2019-02-19T23:33:43.098Z,4.90
2019-02-19T23:36:31.097Z,4.80
2019-02-19T23:38:59.481Z,4.80
2019-02-19T23:41:27.961Z,4.80
2019-02-19T23:43:56.388Z,4.80
2019-02-19T23:46:24.800Z,4.70
2019-02-19T23:48:53.306Z,4.70
2019-02-19T23:51:21.752Z,4.70
2019-02-19T23:53:50.256Z,4.60
2019-02-19T23:56:18.644Z,4.60
2019-02-19T23:58:47.023Z,4.60
